Time;durP1;ratioP1;P1;durP2;ratioP2;P2;SDS_P1;SDS_P2;PMS_P1;PMS_P2;Temp;Humidity;BMP_temperature;BMP_pressure;BME280_temperature;BME280_humidity;BME280_pressure;Samples;Min_cycle;Max_cycle;Signal;HPM_P1;HPM_P2
2022/02/17 00:00:38;;;;;;;;;;;8.60;99.90;;;;;;5172872;27;19995;-77
2022/02/17 00:03:06;;;;;;;;;;;8.40;99.90;;;;;;5174665;27;19919;-78
2022/02/17 00:05:33;;;;;;;;;;;8.20;99.90;;;;;;5174786;27;19919;-77
2022/02/17 00:08:19;;;;;;;274.73;90.13;;;8.10;99.90;;;;;;5175102;27;19993;-77
2022/02/17 00:11:05;;;;;;;;;;;8.40;99.90;;;;;;5175080;27;20130;-78
2022/02/17 00:13:51;;;;;;;;;;;8.50;99.90;;;;;;5171896;27;19990;-79
2022/02/17 00:16:18;;;;;;;294.03;98.53;;;8.40;99.90;;;;;;5174056;27;19957;-80
2022/02/17 00:18:46;;;;;;;287.33;96.97;;;8.20;99.90;;;;;;5173539;27;20041;-79
2022/02/17 00:21:14;;;;;;;298.98;99.57;;;7.80;99.90;;;;;;5174583;27;20478;-79
2022/02/17 00:23:42;;;;;;;334.17;113.68;;;7.70;99.90;;;;;;5174739;27;20538;-78
2022/02/17 00:26:09;;;;;;;296.17;98.03;;;7.70;99.90;;;;;;5174798;27;20042;-78
2022/02/17 00:28:37;;;;;;;;;;;7.90;99.90;;;;;;5173296;27;20033;-79
2022/02/17 00:31:05;;;;;;;;;;;8.00;99.90;;;;;;5170164;27;20353;-78
2022/02/17 00:33:32;;;;;;;;;;;8.00;99.90;;;;;;5171169;27;20084;-78
2022/02/17 00:35:59;;;;;;;;;;;8.10;99.90;;;;;;5172249;27;20241;-78
2022/02/17 00:38:26;;;;;;;;;;;8.20;99.90;;;;;;5174208;27;19925;-77
2022/02/17 00:40:54;;;;;;;;;;;7.70;99.90;;;;;;5174801;27;20283;-76
2022/02/17 00:43:21;;;;;;;;;;;7.50;99.90;;;;;;5174369;27;19996;-79
2022/02/17 00:45:48;;;;;;;;;;;7.50;99.90;;;;;;5174562;27;20439;-77
2022/02/17 00:48:15;;;;;;;;;;;7.30;99.90;;;;;;5173409;27;19926;-80
2022/02/17 00:50:42;;;;;;;;;;;7.40;99.90;;;;;;5171640;27;19918;-78
2022/02/17 00:53:09;;;;;;;;;;;7.50;99.90;;;;;;5172825;27;19918;-78
2022/02/17 00:55:36;;;;;;;;;;;7.50;99.90;;;;;;5174129;27;20287;-80
2022/02/17 00:58:04;;;;;;;;;;;7.50;99.90;;;;;;5171989;27;20294;-77
2022/02/17 01:00:32;;;;;;;294.87;93.93;;;7.50;99.90;;;;;;5172748;27;20255;-76
2022/02/17 01:02:59;;;;;;;297.25;95.35;;;7.70;99.90;;;;;;5173069;27;20065;-78
2022/02/17 01:05:26;;;;;;;301.98;96.10;;;7.80;99.90;;;;;;5173916;27;20486;-76
2022/02/17 01:07:53;;;;;;;303.50;95.22;;;7.90;99.90;;;;;;5173781;27;20514;-76
2022/02/17 01:10:21;;;;;;;300.13;96.72;;;7.80;99.90;;;;;;5174198;27;20049;-77
2022/02/17 01:12:48;;;;;;;135.43;51.22;;;7.70;99.90;;;;;;5173750;27;20038;-77
2022/02/17 01:15:34;;;;;;;294.40;94.87;;;7.50;99.90;;;;;;5173624;27;20061;-83
2022/02/17 01:18:20;;;;;;;296.02;93.03;;;7.40;99.90;;;;;;5173405;27;20057;-80
2022/02/17 01:21:06;;;;;;;292.15;91.78;;;7.20;99.90;;;;;;5173962;27;20129;-80
2022/02/17 01:23:52;;;;;;;316.08;101.60;;;7.20;99.90;;;;;;5173896;27;20188;-81
2022/02/17 01:26:38;;;;;;;124.18;53.72;;;7.20;99.90;;;;;;5158053;27;20495;-79
2022/02/17 01:29:24;;;;;;;38.58;21.90;;;7.20;99.90;;;;;;5173519;27;20069;-77
2022/02/17 01:32:10;;;;;;;123.90;77.38;;;7.10;99.90;;;;;;5173719;27;20057;-77
2022/02/17 01:34:57;;;;;;;258.30;104.88;;;7.10;99.90;;;;;;5173861;27;20045;-77
2022/02/17 01:37:24;;;;;;;291.98;109.10;;;7.20;99.90;;;;;;5173869;27;20045;-83
2022/02/17 01:39:52;;;;;;;300.85;97.25;;;7.30;99.90;;;;;;5173149;27;20042;-78
2022/02/17 01:42:20;;;;;;;319.48;102.65;;;7.50;99.90;;;;;;5173851;27;20403;-78
2022/02/17 01:44:51;;;;;;;331.63;108.10;;;7.40;99.90;;;;;;5173051;27;20045;-74
2022/02/17 01:47:18;;;;;;;311.52;98.20;;;7.50;99.90;;;;;;5173879;27;20416;-79
2022/02/17 01:49:47;;;;;;;332.20;108.10;;;7.40;99.90;;;;;;5172975;27;20038;-80
2022/02/17 01:52:15;;;;;;;329.38;106.05;;;7.30;99.90;;;;;;5173066;27;20122;-82
2022/02/17 01:54:45;;;;;;;312.00;99.32;;;7.30;99.90;;;;;;5152879;27;20053;-79
2022/02/17 01:57:16;;;;;;;296.37;96.07;;;7.30;99.90;;;;;;5173011;27;20046;-78
2022/02/17 01:59:44;;;;;;;296.87;96.30;;;7.20;99.90;;;;;;5173405;27;20394;-81
2022/02/17 02:02:12;;;;;;;303.75;98.20;;;7.00;99.90;;;;;;5177599;27;20038;-78
2022/02/17 02:04:41;;;;;;;282.73;94.53;;;7.20;99.90;;;;;;5176148;27;20107;-78
2022/02/17 02:07:10;;;;;;;295.60;101.67;;;7.30;99.90;;;;;;5176789;27;20367;-78
2022/02/17 02:09:39;;;;;;;310.42;100.18;;;7.30;99.90;;;;;;5176976;27;20043;-79
2022/02/17 02:12:10;;;;;;;;;;;7.20;99.90;;;;;;5177914;27;20438;-80
2022/02/17 02:14:53;;;;;;;;;;;7.00;99.90;;;;;;5158372;27;19919;-78
2022/02/17 02:17:22;;;;;;;;;;;6.90;99.90;;;;;;5176596;27;20295;-81
2022/02/17 02:19:49;;;;;;;;;;;6.90;99.90;;;;;;5177282;27;25108;-77
2022/02/17 02:22:16;;;;;;;;;;;6.70;99.90;;;;;;5177528;27;20379;-83
2022/02/17 02:24:45;;;;;;;;;;;6.60;99.90;;;;;;5177070;27;20271;-78
2022/02/17 02:27:13;;;;;;;;;;;6.50;99.90;;;;;;5177960;27;20244;-78
2022/02/17 02:29:41;;;;;;;;;;;6.60;99.90;;;;;;5177199;27;19926;-80
2022/02/17 02:32:09;;;;;;;;;;;6.50;99.90;;;;;;5177771;27;19941;-79
2022/02/17 02:34:37;;;;;;;;;;;6.50;99.90;;;;;;5177353;27;19919;-77
2022/02/17 02:37:23;;;;;;;;;;;6.70;99.90;;;;;;5177942;27;19930;-81
2022/02/17 02:40:12;;;;;;;;;;;6.90;99.90;;;;;;5177165;27;20416;-75
2022/02/17 02:42:58;;;;;;;;;;;6.90;99.90;;;;;;5177279;27;20487;-80
2022/02/17 02:45:44;;;;;;;;;;;6.80;99.90;;;;;;5176943;27;20045;-81
2022/02/17 02:48:29;;;;;;;;;;;6.70;99.90;;;;;;5177354;27;20059;-78
2022/02/17 02:51:15;;;;;;;;;;;6.80;99.90;;;;;;5176620;27;19989;-78
2022/02/17 02:54:01;;;;;;;;;;;6.90;99.90;;;;;;5176953;27;19925;-81
2022/02/17 02:56:49;;;;;;;;;;;6.70;99.90;;;;;;5161930;27;19925;-78
2022/02/17 02:59:16;;;;;;;;;;;6.90;99.90;;;;;;5176726;27;19998;-79
2022/02/17 03:01:43;;;;;;;;;;;6.70;99.90;;;;;;5158353;27;19918;-75
2022/02/17 03:04:10;;;;;;;;;;;6.40;99.90;;;;;;5176256;27;19919;-79
2022/02/17 03:06:37;;;;;;;;;;;6.50;99.90;;;;;;5176738;27;20287;-81
2022/02/17 03:09:05;;;;;;;;;;;6.70;99.90;;;;;;5176093;27;19926;-78
2022/02/17 03:11:32;;;;;;;;;;;6.70;99.90;;;;;;5175560;27;19918;-76
2022/02/17 03:13:59;;;;;;;;;;;6.70;99.90;;;;;;5176527;27;20291;-80
2022/02/17 03:16:28;;;;;;;;;;;6.70;99.90;;;;;;5157836;27;19918;-76
2022/02/17 03:18:55;;;;;;;;;;;6.80;99.90;;;;;;5176462;27;19918;-78
2022/02/17 03:21:22;;;;;;;;;;;6.90;99.90;;;;;;5158095;27;19919;-78
2022/02/17 03:23:49;;;;;;;;;;;6.80;99.90;;;;;;5157842;27;19929;-78
2022/02/17 03:26:17;;;;;;;;;;;6.80;99.90;;;;;;5175931;27;19919;-78
2022/02/17 03:28:44;;;;;;;;;;;6.90;99.90;;;;;;5176350;27;19919;-75
2022/02/17 03:31:11;;;;;;;;;;;7.00;99.90;;;;;;5176109;27;19925;-76
2022/02/17 03:33:38;;;;;;;;;;;7.10;99.90;;;;;;5176154;27;19918;-76
2022/02/17 03:36:05;;;;;;;;;;;6.90;99.90;;;;;;5157545;27;19918;-78
2022/02/17 03:38:32;;;;;;;;;;;7.00;99.90;;;;;;5176154;27;20270;-76
2022/02/17 03:40:59;;;;;;;;;;;6.90;99.90;;;;;;5175886;27;19922;-79
2022/02/17 03:43:26;;;;;;;;;;;6.80;99.90;;;;;;5175814;27;19918;-76
2022/02/17 03:45:53;;;;;;;;;;;6.90;99.90;;;;;;5157228;27;19925;-77
2022/02/17 03:48:21;;;;;;;;;;;7.10;99.90;;;;;;5175685;27;20371;-77
2022/02/17 03:50:48;;;;;;;;;;;7.00;99.90;;;;;;5175427;27;19919;-78
2022/02/17 03:53:15;;;;;;;142.20;52.75;;;7.00;99.90;;;;;;5169263;27;20321;-78
2022/02/17 03:55:42;;;;;;;297.35;96.75;;;7.20;99.90;;;;;;5173350;27;20038;-78
2022/02/17 03:58:09;;;;;;;35.13;21.38;;;7.20;99.90;;;;;;5175389;27;20479;-77
2022/02/17 04:00:37;;;;;;;41.33;24.98;;;7.10;99.90;;;;;;5156423;27;20034;-77
2022/02/17 04:03:04;;;;;;;43.85;24.95;;;7.10;99.90;;;;;;5175134;27;20046;-79
2022/02/17 04:05:31;;;;;;;41.90;24.55;;;7.10;99.90;;;;;;5174811;27;20042;-78
2022/02/17 04:07:59;;;;;;;46.30;25.08;;;7.00;99.90;;;;;;5174510;27;20050;-77
2022/02/17 04:10:26;;;;;;;42.15;25.73;;;6.90;99.90;;;;;;5175209;27;20499;-76
2022/02/17 04:12:53;;;;;;;42.08;24.55;;;6.90;99.90;;;;;;5174931;27;20041;-76
2022/02/17 04:15:21;;;;;;;41.38;25.38;;;7.00;99.90;;;;;;5174554;27;20039;-76
2022/02/17 04:17:48;;;;;;;42.58;24.60;;;7.00;99.90;;;;;;5156408;27;20034;-75
2022/02/17 04:20:15;;;;;;;47.58;24.73;;;6.90;99.90;;;;;;5175429;27;20050;-79
2022/02/17 04:22:42;;;;;;;42.75;25.13;;;6.90;99.90;;;;;;5174230;27;20041;-77
2022/02/17 04:25:09;;;;;;;38.60;23.42;;;6.80;99.90;;;;;;5174714;27;20050;-80
2022/02/17 04:27:37;;;;;;;40.67;24.75;;;6.60;99.90;;;;;;5175083;27;20045;-77
2022/02/17 04:30:05;;;;;;;37.28;22.83;;;6.70;99.90;;;;;;5175130;27;20436;-80
2022/02/17 04:32:32;;;;;;;41.85;24.25;;;6.50;99.90;;;;;;5174959;27;20061;-79
2022/02/17 04:34:59;;;;;;;37.75;23.27;;;6.60;99.90;;;;;;5175009;27;20471;-82
2022/02/17 04:37:27;;;;;;;38.25;24.88;;;6.40;99.90;;;;;;5174697;27;20034;-84
2022/02/17 04:39:54;;;;;;;35.92;22.33;;;6.50;99.90;;;;;;5174841;27;20042;-76
2022/02/17 04:42:23;;;;;;;36.30;22.92;;;6.20;99.90;;;;;;5174761;27;20390;-78
2022/02/17 04:44:50;;;;;;;33.03;21.80;;;6.10;99.90;;;;;;5173907;27;20093;-76
2022/02/17 04:47:18;;;;;;;37.10;21.65;;;6.20;99.90;;;;;;5156143;27;20042;-75
2022/02/17 04:49:48;;;;;;;35.15;20.88;;;6.40;99.90;;;;;;5174273;27;20410;-78
2022/02/17 04:52:15;;;;;;;32.20;21.60;;;6.40;99.90;;;;;;5174082;27;20558;-78
2022/02/17 04:54:42;;;;;;;38.95;23.65;;;6.30;99.90;;;;;;5173861;27;20046;-81
2022/02/17 04:57:10;;;;;;;31.88;20.13;;;6.30;99.90;;;;;;5174166;27;20046;-78
2022/02/17 04:59:37;;;;;;;33.35;19.95;;;6.10;99.90;;;;;;5173859;27;20503;-77
2022/02/17 05:02:05;;;;;;;36.42;20.77;;;5.80;99.90;;;;;;5174174;27;20464;-77
2022/02/17 05:04:32;;;;;;;29.75;18.88;;;5.90;99.90;;;;;;5173291;27;20042;-78
2022/02/17 05:06:59;;;;;;;32.15;19.55;;;6.00;99.90;;;;;;5173746;27;20380;-78
2022/02/17 05:09:26;;;;;;;28.80;17.30;;;6.00;99.90;;;;;;5174065;27;20039;-79
2022/02/17 05:11:53;;;;;;;33.58;19.75;;;6.10;99.90;;;;;;5174142;27;20535;-81
2022/02/17 05:14:21;;;;;;;28.85;19.45;;;5.90;99.90;;;;;;5173775;27;20030;-82
2022/02/17 05:16:48;;;;;;;33.28;18.38;;;5.80;99.90;;;;;;5174098;27;20044;-79
2022/02/17 05:19:15;;;;;;;32.72;19.88;;;5.90;99.90;;;;;;5174510;27;20364;-81
2022/02/17 05:21:42;;;;;;;33.50;19.67;;;5.80;99.90;;;;;;5171865;27;20052;-75
2022/02/17 05:24:09;;;;;;;30.83;19.98;;;5.80;99.90;;;;;;5166928;27;20038;-76
2022/02/17 05:26:37;;;;;;;32.17;20.08;;;5.50;99.90;;;;;;5173895;27;20050;-82
2022/02/17 05:29:04;;;;;;;33.40;19.73;;;5.60;99.90;;;;;;5173694;27;20030;-80
2022/02/17 05:31:31;;;;;;;29.77;19.52;;;5.60;99.90;;;;;;5173752;27;20038;-75
2022/02/17 05:33:59;;;;;;;31.45;18.95;;;5.60;99.90;;;;;;5173293;27;20038;-78
2022/02/17 05:36:26;;;;;;;31.17;19.85;;;5.50;99.90;;;;;;5177062;27;20045;-77
2022/02/17 05:38:53;;;;;;;37.80;19.25;;;5.60;99.90;;;;;;5178559;27;20048;-77
2022/02/17 05:41:20;;;;;;;31.65;20.05;;;5.70;99.90;;;;;;5178234;27;20087;-77
2022/02/17 05:43:47;;;;;;;30.13;20.20;;;5.70;99.90;;;;;;5177669;27;20040;-76
2022/02/17 05:46:18;;;;;;;31.60;18.55;;;5.80;99.90;;;;;;5177992;27;20069;-77
2022/02/17 05:48:48;;;;;;;32.42;18.17;;;5.80;99.90;;;;;;5159381;27;20038;-78
2022/02/17 05:51:19;;;;;;;29.67;17.48;;;5.60;99.90;;;;;;5159266;27;20112;-80
2022/02/17 05:53:47;;;;;;;31.02;19.55;;;5.60;99.90;;;;;;5141541;27;20036;-79
2022/02/17 05:56:15;;;;;;;33.55;20.02;;;5.50;99.90;;;;;;5141520;27;20137;-76
2022/02/17 05:58:42;;;;;;;34.45;20.20;;;5.40;99.90;;;;;;5177829;27;20065;-78
2022/02/17 06:01:09;;;;;;;31.38;20.25;;;5.40;99.90;;;;;;5176819;27;20027;-75
2022/02/17 06:03:55;;;;;;;34.70;19.63;;;5.50;99.90;;;;;;5176411;27;20061;-81
2022/02/17 06:06:22;;;;;;;35.85;20.33;;;5.60;99.90;;;;;;5177474;27;20073;-77
2022/02/17 06:08:52;;;;;;;28.70;19.15;;;5.60;99.90;;;;;;5177783;27;20447;-82
2022/02/17 06:11:20;;;;;;;34.85;20.08;;;5.70;99.90;;;;;;5177476;27;20428;-76
2022/02/17 06:13:47;;;;;;;37.45;20.65;;;5.90;99.90;;;;;;5158609;27;20098;-76
2022/02/17 06:16:14;;;;;;;31.92;19.85;;;6.00;99.90;;;;;;5177000;27;20042;-77
2022/02/17 06:18:41;;;;;;;35.63;20.77;;;6.00;99.90;;;;;;5176559;27;20042;-73
2022/02/17 06:21:09;;;;;;;74.57;37.97;;;5.80;99.90;;;;;;5176488;27;20113;-72
2022/02/17 06:23:36;;;;;;;237.77;116.80;;;5.90;99.90;;;;;;5141233;27;20057;-73
2022/02/17 06:26:03;;;;;;;146.13;78.50;;;6.10;99.90;;;;;;5157614;27;20046;-71
2022/02/17 06:28:31;;;;;;;201.50;97.93;;;6.20;99.90;;;;;;5176316;27;20034;-73
2022/02/17 06:31:01;;;;;;;126.15;63.15;;;6.40;99.90;;;;;;5157673;27;20046;-72
2022/02/17 06:33:32;;;;;;;61.22;33.30;;;6.50;99.90;;;;;;5176495;27;20038;-75
2022/02/17 06:36:04;;;;;;;37.92;23.52;;;6.60;99.90;;;;;;5141223;27;20070;-81
2022/02/17 06:38:57;;;;;;;32.65;20.20;;;6.60;99.90;;;;;;5151130;27;20050;-73
2022/02/17 06:41:28;;;;;;;34.63;21.52;;;6.50;99.90;;;;;;5140414;27;20125;-81
2022/02/17 06:43:57;;;;;;;32.45;20.83;;;6.50;99.90;;;;;;5119319;27;20063;-78
2022/02/17 06:46:25;;;;;;;41.33;20.17;;;6.60;99.90;;;;;;5144118;27;20064;-77
2022/02/17 06:48:52;;;;;;;37.90;21.00;;;6.60;99.90;;;;;;5175074;27;20034;-75
2022/02/17 06:51:27;;;;;;;30.73;19.27;;;6.80;99.90;;;;;;5157757;27;20114;-72
2022/02/17 06:53:54;;;;;;;32.10;19.60;;;6.90;99.90;;;;;;5140526;27;20066;-77
2022/02/17 06:56:22;;;;;;;36.45;20.73;;;6.90;99.90;;;;;;5154664;27;20090;-73
2022/02/17 06:58:50;;;;;;;29.85;19.27;;;6.90;99.90;;;;;;5157088;27;20054;-77
2022/02/17 07:01:17;;;;;;;34.50;18.70;;;6.80;99.90;;;;;;5176267;27;20042;-78
2022/02/17 07:03:45;;;;;;;27.60;16.92;;;6.90;99.90;;;;;;5175885;27;20061;-75
2022/02/17 07:06:12;;;;;;;31.27;18.42;;;6.80;99.90;;;;;;5175911;27;20053;-74
2022/02/17 07:08:39;;;;;;;66.53;38.38;;;6.90;99.90;;;;;;5176983;27;20099;-77
2022/02/17 07:11:07;;;;;;;64.13;36.63;;;7.30;99.90;;;;;;5176742;27;20116;-76
2022/02/17 07:13:34;;;;;;;30.95;19.17;;;7.70;99.90;;;;;;5163140;27;20122;-78
2022/02/17 07:16:02;;;;;;;36.75;19.05;;;7.30;99.90;;;;;;5163828;27;20053;-73
2022/02/17 07:18:29;;;;;;;28.98;19.27;;;7.00;99.90;;;;;;5154399;27;20033;-73
2022/02/17 07:20:56;;;;;;;37.63;21.42;;;6.80;99.90;;;;;;5136605;27;20038;-75
2022/02/17 07:23:25;;;;;;;38.63;20.88;;;6.80;99.90;;;;;;5155177;27;20045;-73
2022/02/17 07:25:54;;;;;;;36.90;21.08;;;7.10;99.90;;;;;;5154497;27;20118;-75
2022/02/17 07:28:22;;;;;;;35.17;19.48;;;7.30;99.90;;;;;;5168334;27;20042;-75
2022/02/17 07:30:50;;;;;;;34.00;19.92;;;7.20;99.90;;;;;;5175710;27;20034;-73
2022/02/17 07:33:17;;;;;;;30.60;19.00;;;7.10;99.90;;;;;;5156974;27;20035;-76
2022/02/17 07:35:45;;;;;;;33.33;17.67;;;7.30;99.90;;;;;;5174519;27;20395;-71
2022/02/17 07:38:33;;;;;;;29.33;18.52;;;7.20;99.90;;;;;;5175481;27;20042;-74
2022/02/17 07:41:00;;;;;;;30.13;17.45;;;7.20;99.90;;;;;;5175575;27;20034;-78
2022/02/17 07:43:28;;;;;;;24.83;16.67;;;7.30;99.90;;;;;;5175184;27;20045;-73
2022/02/17 07:45:57;;;;;;;30.85;17.08;;;7.10;99.90;;;;;;5175028;27;20054;-74
2022/02/17 07:48:24;;;;;;;23.25;15.55;;;7.20;99.90;;;;;;5174689;27;20696;-74
2022/02/17 07:50:53;;;;;;;23.85;16.58;;;7.30;99.90;;;;;;5175325;27;20046;-75
2022/02/17 07:53:20;;;;;;;26.73;17.90;;;7.50;99.90;;;;;;5174862;27;20038;-71
2022/02/17 07:55:47;;;;;;;26.75;16.00;;;7.40;99.90;;;;;;5175659;27;20502;-76
2022/02/17 07:58:17;;;;;;;25.65;15.80;;;7.30;99.90;;;;;;5160464;27;20073;-73
2022/02/17 08:00:45;;;;;;;24.50;15.50;;;7.60;99.90;;;;;;5154651;27;20387;-78
2022/02/17 08:03:13;;;;;;;29.73;16.10;;;7.80;99.90;;;;;;5153688;27;20082;-75
2022/02/17 08:05:41;;;;;;;23.98;16.58;;;8.00;99.90;;;;;;5135442;27;20042;-77
2022/02/17 08:08:10;;;;;;;44.53;17.40;;;7.90;99.90;;;;;;5153870;27;20547;-71
2022/02/17 08:10:38;;;;;;;32.25;19.13;;;8.10;99.90;;;;;;5154168;27;20049;-74
2022/02/17 08:13:06;;;;;;;28.02;16.98;;;8.00;99.90;;;;;;5165352;27;20042;-76
2022/02/17 08:15:33;;;;;;;32.15;19.13;;;8.20;99.90;;;;;;5174591;27;20035;-75
2022/02/17 08:18:01;;;;;;;35.20;18.65;;;8.20;99.90;;;;;;5156204;27;20441;-77
2022/02/17 08:20:46;;;;;;;35.05;21.05;;;8.50;99.90;;;;;;5174867;27;20402;-76
2022/02/17 08:23:14;;;;;;;32.42;21.10;;;8.80;99.90;;;;;;5155818;27;20058;-76
2022/02/17 08:25:42;;;;;;;31.50;18.15;;;9.20;99.90;;;;;;5174365;27;20030;-73
2022/02/17 08:28:10;;;;;;;32.85;17.90;;;9.30;99.90;;;;;;5174103;27;20045;-74
2022/02/17 08:30:38;;;;;;;28.08;19.38;;;9.20;99.90;;;;;;5174123;27;20122;-73
2022/02/17 08:33:05;;;;;;;29.13;18.30;;;9.20;99.90;;;;;;5155801;27;20053;-74
2022/02/17 08:35:51;;;;;;;31.55;18.25;;;9.20;99.90;;;;;;5174603;27;20049;-77
2022/02/17 08:38:19;;;;;;;38.25;19.92;;;9.30;99.90;;;;;;5174403;27;20057;-77
2022/02/17 08:40:46;;;;;;;30.88;18.17;;;9.50;99.90;;;;;;5174209;27;20041;-81
2022/02/17 08:43:14;;;;;;;32.75;19.88;;;9.70;99.90;;;;;;5174161;27;20050;-75
2022/02/17 08:45:43;;;;;;;29.63;18.30;;;9.80;99.90;;;;;;5174174;27;20037;-83
2022/02/17 08:48:11;;;;;;;33.90;19.35;;;10.00;99.90;;;;;;5174060;27;20042;-75
2022/02/17 08:50:40;;;;;;;50.88;30.58;;;9.90;99.90;;;;;;5155413;27;20042;-81
2022/02/17 08:53:07;;;;;;;120.30;63.97;;;10.50;99.90;;;;;;5174436;27;20046;-81
2022/02/17 08:55:51;;;;;;;35.90;20.70;;;10.90;99.90;;;;;;5158027;27;20042;-75
2022/02/17 08:58:18;;;;;;;27.88;17.35;;;10.80;99.90;;;;;;5173438;27;20394;-75
2022/02/17 09:00:47;;;;;;;24.88;14.63;;;10.20;99.90;;;;;;5173632;27;20113;-75
2022/02/17 09:03:14;;;;;;;23.40;15.25;;;10.30;99.90;;;;;;5173559;27;20042;-80
2022/02/17 09:05:41;;;;;;;31.27;16.17;;;10.40;99.90;;;;;;5173727;27;20399;-76
2022/02/17 09:08:29;;;;;;;26.85;16.50;;;10.40;99.90;;;;;;5173728;27;20038;-73
2022/02/17 09:10:56;;;;;;;27.30;18.10;;;10.70;99.90;;;;;;5172672;27;20042;-74
2022/02/17 09:13:24;;;;;;;26.67;16.88;;;10.90;99.90;;;;;;5173693;27;20490;-74
2022/02/17 09:15:51;;;;;;;26.67;15.82;;;11.00;99.90;;;;;;5173768;27;20037;-76
2022/02/17 09:18:18;;;;;;;25.60;15.32;;;10.90;99.90;;;;;;5173306;27;20046;-73
2022/02/17 09:20:46;;;;;;;25.60;15.57;;;10.80;99.90;;;;;;5155382;27;20491;-74
2022/02/17 09:23:14;;;;;;;25.63;15.70;;;11.10;99.90;;;;;;5173863;27;20042;-79
2022/02/17 09:25:42;;;;;;;22.20;15.05;;;11.10;99.90;;;;;;5138134;27;20044;-78
2022/02/17 09:28:10;;;;;;;25.33;16.08;;;11.10;99.90;;;;;;5137934;27;20145;-80
2022/02/17 09:30:37;;;;;;;25.10;16.27;;;11.40;99.90;;;;;;5138103;27;20078;-82
2022/02/17 09:33:05;;;;;;;28.20;17.63;;;11.50;99.90;;;;;;5138014;27;20487;-77
2022/02/17 09:35:35;;;;;;;30.95;16.30;;;11.70;99.90;;;;;;5138714;27;20070;-77
2022/02/17 09:38:13;;;;;;;26.35;16.08;;;11.70;99.90;;;;;;5138618;27;20046;-77
2022/02/17 09:40:42;;;;;;;22.52;14.80;;;11.90;99.90;;;;;;5154806;27;20038;-78
2022/02/17 09:43:16;;;;;;;26.48;15.77;;;11.90;99.90;;;;;;5154427;27;20038;-77
2022/02/17 09:45:55;;;;;;;27.55;16.70;;;12.20;99.90;;;;;;5155578;27;20048;-77
2022/02/17 09:48:43;;;;;;;;;;;12.40;99.90;;;;;;5137878;27;20138;-79
2022/02/17 09:51:11;;;;;;;26.42;14.45;;;12.50;99.90;;;;;;5173297;27;19923;-78
2022/02/17 09:53:38;;;;;;;22.83;15.40;;;12.70;99.90;;;;;;5137243;27;20045;-77
2022/02/17 09:56:07;;;;;;;25.77;15.05;;;12.90;99.90;;;;;;5172972;27;20072;-78
2022/02/17 09:58:36;;;;;;;24.30;14.32;;;12.90;99.90;;;;;;5152753;27;20515;-78
2022/02/17 10:01:04;;;;;;;25.45;15.07;;;13.00;99.90;;;;;;5154595;27;20053;-76
2022/02/17 10:03:36;;;;;;;22.75;15.23;;;13.10;99.90;;;;;;5172668;27;20507;-79
2022/02/17 10:06:24;;;;;;;26.33;17.30;;;13.40;99.90;;;;;;5173236;27;20115;-77
2022/02/17 10:08:51;;;;;;;28.33;18.60;;;13.70;99.90;;;;;;5173211;27;20047;-74
2022/02/17 10:11:29;;;;;;;24.02;16.00;;;14.00;99.90;;;;;;5172759;27;20117;-75
2022/02/17 10:14:05;;;;;;;21.63;14.82;;;14.00;99.90;;;;;;5172925;27;20061;-75
2022/02/17 10:17:08;;;;;;;21.23;14.65;;;14.20;99.90;;;;;;5173256;27;20053;-76
2022/02/17 10:19:41;;;;;;;21.90;14.30;;;14.10;99.90;;;;;;5172880;27;20041;-73
2022/02/17 10:22:19;;;;;;;27.33;16.27;;;14.20;99.90;;;;;;5175459;27;20065;-74
2022/02/17 10:24:52;;;;;;;27.80;16.20;;;14.70;99.90;;;;;;5176687;27;20039;-76
2022/02/17 10:27:25;;;;;;;21.73;14.50;;;15.10;99.90;;;;;;5158011;27;20046;-74
2022/02/17 10:30:10;;;;;;;21.73;13.57;;;15.20;99.90;;;;;;5176439;27;20030;-76
2022/02/17 10:32:54;;;;;;;24.77;13.45;;;14.30;99.90;;;;;;5176375;27;20044;-73
2022/02/17 10:35:22;;;;;;;24.05;13.68;;;14.60;99.90;;;;;;5158197;27;20042;-76
2022/02/17 10:37:52;;;;;;;22.52;12.18;;;14.90;99.90;;;;;;5158232;27;20043;-75
2022/02/17 10:40:22;;;;;;;15.65;11.52;;;15.10;99.90;;;;;;5176432;27;20049;-75
2022/02/17 10:43:08;;;;;;;14.55;11.05;;;15.00;99.90;;;;;;5176296;27;20030;-76
2022/02/17 10:45:43;;;;;;;18.77;11.40;;;14.80;99.90;;;;;;5176765;27;20045;-76
2022/02/17 10:48:19;;;;;;;17.90;11.88;;;14.40;99.90;;;;;;5176417;27;20042;-77
2022/02/17 10:51:07;;;;;;;16.50;11.82;;;14.30;99.90;;;;;;5176194;27;20068;-74
2022/02/17 10:53:46;;;;;;;21.13;12.38;;;14.30;99.90;;;;;;5177013;27;20048;-75
2022/02/17 10:56:21;;;;;;;18.73;11.45;;;14.60;99.90;;;;;;5155527;27;20050;-81
2022/02/17 10:58:50;;;;;;;18.17;11.80;;;15.20;99.90;;;;;;5147840;27;20234;-73
2022/02/17 11:01:20;;;;;;;15.47;9.87;;;16.20;98.20;;;;;;5165877;27;20046;-79
2022/02/17 11:03:48;;;;;;;17.17;10.60;;;15.90;96.80;;;;;;5175636;27;20053;-78
2022/02/17 11:06:17;;;;;;;20.30;11.27;;;15.70;98.70;;;;;;5156573;27;20447;-77
2022/02/17 11:08:49;;;;;;;16.40;10.40;;;15.90;97.80;;;;;;5172253;27;20038;-77
2022/02/17 11:11:18;;;;;;;15.80;9.73;;;15.80;97.50;;;;;;5155956;27;20038;-75
2022/02/17 11:13:51;;;;;;;12.18;8.60;;;16.00;96.30;;;;;;5169767;27;20069;-76
2022/02/17 11:16:23;;;;;;;16.45;10.02;;;16.00;95.10;;;;;;5174366;27;20040;-75
2022/02/17 11:18:55;;;;;;;14.27;9.68;;;16.00;96.50;;;;;;5172843;27;20045;-77
2022/02/17 11:21:23;;;;;;;14.27;9.30;;;16.10;96.10;;;;;;5156640;27;20570;-78
2022/02/17 11:23:57;;;;;;;19.55;10.60;;;16.30;96.40;;;;;;5174935;27;20053;-78
2022/02/17 11:26:31;;;;;;;15.52;9.88;;;16.00;96.60;;;;;;5175716;27;20034;-79
2022/02/17 11:29:27;;;;;;;17.58;10.05;;;16.00;97.00;;;;;;5159957;27;20034;-76
2022/02/17 11:32:02;;;;;;;11.43;7.63;;;15.60;98.00;;;;;;5164221;27;20065;-76
2022/02/17 11:34:53;;;;;;;33.28;20.45;;;15.50;95.80;;;;;;5159889;27;20117;-74
2022/02/17 11:37:21;;;;;;;40.67;22.40;;;15.50;95.70;;;;;;5159654;27;20042;-75
2022/02/17 11:40:00;;;;;;;16.50;9.30;;;16.10;95.60;;;;;;5173352;27;20038;-76
2022/02/17 11:42:29;;;;;;;12.32;8.90;;;16.00;93.30;;;;;;5142814;27;20041;-76
2022/02/17 11:45:16;;;;;;;13.18;9.35;;;16.20;94.70;;;;;;5160615;27;20042;-76
2022/02/17 11:48:08;;;;;;;16.75;9.27;;;16.40;94.70;;;;;;5164724;27;20053;-77
2022/02/17 11:50:44;;;;;;;11.02;7.85;;;16.60;93.40;;;;;;5160632;27;20087;-73
2022/02/17 11:53:35;;;;;;;13.43;8.10;;;16.40;92.40;;;;;;5169100;27;20488;-76
2022/02/17 11:56:15;;;;;;;15.35;8.27;;;16.40;92.40;;;;;;5156429;27;20045;-76
2022/02/17 11:58:47;;;;;;;14.82;8.10;;;16.50;92.40;;;;;;5156740;27;20129;-76
2022/02/17 12:01:27;;;;;;;16.95;8.27;;;16.40;92.70;;;;;;5153585;27;20391;-75
2022/02/17 12:04:08;;;;;;;14.23;7.80;;;16.40;92.50;;;;;;5153778;27;20055;-74
2022/02/17 12:07:27;;;;;;;11.93;8.02;;;16.80;91.80;;;;;;5154210;27;20065;-72
2022/02/17 12:09:54;;;;;;;17.83;9.13;;;16.40;91.80;;;;;;5152356;27;20039;-74
2022/02/17 12:12:30;;;;;;;14.75;8.65;;;16.30;93.00;;;;;;5158456;27;20029;-76
2022/02/17 12:15:02;;;;;;;14.75;8.18;;;16.80;91.70;;;;;;5171729;27;20087;-77
2022/02/17 12:17:37;;;;;;;15.35;7.95;;;17.20;90.50;;;;;;5171346;27;20034;-75
2022/02/17 12:20:12;;;;;;;13.88;7.88;;;17.40;88.30;;;;;;5172287;27;20042;-75
2022/02/17 12:22:52;;;;;;;11.95;7.35;;;17.40;86.80;;;;;;5172832;27;20038;-76
2022/02/17 12:25:22;;;;;;;16.15;8.45;;;17.20;86.70;;;;;;5173738;27;20035;-77
2022/02/17 12:27:53;;;;;;;15.32;9.10;;;17.90;85.50;;;;;;5173438;27;20034;-76
2022/02/17 12:30:38;;;;;;;12.82;8.80;;;18.80;81.80;;;;;;5174770;27;20042;-74
2022/02/17 12:33:11;;;;;;;14.73;10.23;;;18.80;79.80;;;;;;5173991;27;20423;-73
2022/02/17 12:35:41;;;;;;;15.90;8.73;;;20.00;76.60;;;;;;5174649;27;20035;-78
2022/02/17 12:38:11;;;;;;;15.07;9.77;;;19.70;73.10;;;;;;5155525;27;20141;-74
2022/02/17 12:40:40;;;;;;;12.40;8.57;;;19.20;73.80;;;;;;5174474;27;20387;-75
2022/02/17 12:43:08;;;;;;;23.95;15.15;;;19.60;72.10;;;;;;5174285;27;20049;-74
2022/02/17 12:45:50;;;;;;;29.92;19.08;;;20.20;69.50;;;;;;5174317;27;20030;-74
2022/02/17 12:48:18;;;;;;;12.10;7.55;;;20.40;67.80;;;;;;5174024;27;20034;-76
2022/02/17 12:51:06;;;;;;;8.45;4.82;;;19.60;64.40;;;;;;5174126;27;20060;-74
2022/02/17 12:53:48;;;;;;;8.43;5.50;;;19.50;62.60;;;;;;5155508;27;20038;-76
2022/02/17 12:56:42;;;;;;;12.00;6.53;;;19.70;63.60;;;;;;5174251;27;20049;-73
2022/02/17 12:59:15;;;;;;;12.55;7.28;;;20.10;62.70;;;;;;5149080;27;20053;-78
2022/02/17 13:01:50;;;;;;;11.63;6.75;;;20.20;63.50;;;;;;5153182;27;20046;-71
2022/02/17 13:04:18;;;;;;;12.85;6.35;;;19.70;62.80;;;;;;5152678;27;20045;-72
2022/02/17 13:06:46;;;;;;;11.85;6.75;;;19.40;64.10;;;;;;5153136;27;20483;-77
2022/02/17 13:09:17;;;;;;;17.27;8.77;;;19.50;64.20;;;;;;5153070;27;20048;-76
2022/02/17 13:11:46;;;;;;;9.88;7.00;;;19.70;64.30;;;;;;5152783;27;20039;-75
2022/02/17 13:14:14;;;;;;;14.02;5.95;;;19.70;61.80;;;;;;5173357;27;20045;-74